Dawson Community Airport Glendive US
ICAO: KGDV
IATA: GDV
Category: Medium
Scheduled Services: No

Elevation: 2458 ft
TransAlt. 18000 ft.

Airport Communications:
AWOS 3:135.075
GREAT FALLS RDO:122.55
CTAF/UNICOM:122.8

KGDV Zoom In..

Runways:

(A) RW 02 length 3002 ft width 60 ft
---- / hdg 23

(B) RW 12 length 5704 ft width 100 ft
---- / hdg 123

(C) RW 20 length 3002 ft width 60 ft
---- / hdg 203

(D) RW 30 length 5704 ft width 100 ft
---- / hdg 303

Location; KGDV
Day. 22 / Time. 01.56 Zulu
* Altimeter: 29.86
* Temperature: 23° c. 73.4°f.
* Wind from: 170° Speed 03 kn.
Dewpoint: 11° c.
Visibility: 10 Statute Miles.
Clouds: Clear (automated report).

KGDV 220156Z AUTO 17003KT 10SM CLR 23/11 A2986 RMK AO2 SLP100 T02330111


Wind From 170°
Speed 03 kn.

 
 
jpsmedia.com for Web Design SOUNDCLOUD worldairports.se 2018   terms of use